sensor_id;sensor_type;location;lat;lon;timestamp;P1;durP1;ratioP1;P2;durP2;ratioP2
18867;SDS011;9563;49.240;9.088;2022-09-12T00:01:15;10.60;;;6.35;;
18867;SDS011;9563;49.240;9.088;2022-09-12T00:03:44;14.88;;;7.25;;
18867;SDS011;9563;49.240;9.088;2022-09-12T00:06:14;15.73;;;7.15;;
18867;SDS011;9563;49.240;9.088;2022-09-12T00:08:43;16.27;;;8.70;;
18867;SDS011;9563;49.240;9.088;2022-09-12T00:11:11;26.42;;;11.88;;
18867;SDS011;9563;49.240;9.088;2022-09-12T00:13:38;22.33;;;11.20;;
18867;SDS011;9563;49.240;9.088;2022-09-12T00:16:06;19.40;;;10.15;;
18867;SDS011;9563;49.240;9.088;2022-09-12T00:18:41;13.80;;;8.85;;
18867;SDS011;9563;49.240;9.088;2022-09-12T00:21:10;18.27;;;9.07;;
18867;SDS011;9563;49.240;9.088;2022-09-12T00:23:38;14.63;;;9.10;;
18867;SDS011;9563;49.240;9.088;2022-09-12T00:26:05;15.43;;;7.45;;
18867;SDS011;9563;49.240;9.088;2022-09-12T00:28:32;16.13;;;8.32;;
18867;SDS011;9563;49.240;9.088;2022-09-12T00:31:02;12.23;;;7.53;;
18867;SDS011;9563;49.240;9.088;2022-09-12T00:33:31;12.38;;;5.50;;
18867;SDS011;9563;49.240;9.088;2022-09-12T00:36:02;10.40;;;5.88;;
18867;SDS011;9563;49.240;9.088;2022-09-12T00:38:30;8.43;;;5.40;;
18867;SDS011;9563;49.240;9.088;2022-09-12T00:40:57;8.52;;;5.70;;
18867;SDS011;9563;49.240;9.088;2022-09-12T00:43:34;10.73;;;6.22;;
18867;SDS011;9563;49.240;9.088;2022-09-12T00:46:05;10.43;;;6.45;;
18867;SDS011;9563;49.240;9.088;2022-09-12T00:48:38;9.40;;;6.28;;
18867;SDS011;9563;49.240;9.088;2022-09-12T00:51:10;11.13;;;7.20;;
18867;SDS011;9563;49.240;9.088;2022-09-12T00:53:38;10.88;;;7.15;;
18867;SDS011;9563;49.240;9.088;2022-09-12T00:56:09;12.60;;;6.80;;
18867;SDS011;9563;49.240;9.088;2022-09-12T00:58:40;10.63;;;5.88;;
18867;SDS011;9563;49.240;9.088;2022-09-12T01:01:11;13.60;;;6.00;;
18867;SDS011;9563;49.240;9.088;2022-09-12T01:03:38;10.50;;;6.28;;
18867;SDS011;9563;49.240;9.088;2022-09-12T01:06:07;10.27;;;6.72;;
18867;SDS011;9563;49.240;9.088;2022-09-12T01:08:40;9.93;;;6.43;;
18867;SDS011;9563;49.240;9.088;2022-09-12T01:11:10;8.48;;;4.90;;
18867;SDS011;9563;49.240;9.088;2022-09-12T01:13:37;7.68;;;5.18;;
18867;SDS011;9563;49.240;9.088;2022-09-12T01:16:05;10.50;;;5.70;;
18867;SDS011;9563;49.240;9.088;2022-09-12T01:18:37;10.30;;;5.22;;
18867;SDS011;9563;49.240;9.088;2022-09-12T01:21:14;7.40;;;5.22;;
18867;SDS011;9563;49.240;9.088;2022-09-12T01:24:11;8.63;;;5.10;;
18867;SDS011;9563;49.240;9.088;2022-09-12T01:26:56;11.95;;;6.45;;
18867;SDS011;9563;49.240;9.088;2022-09-12T01:29:55;7.22;;;5.20;;
18867;SDS011;9563;49.240;9.088;2022-09-12T01:32:44;8.82;;;5.32;;
18867;SDS011;9563;49.240;9.088;2022-09-12T01:35:21;8.80;;;5.15;;
18867;SDS011;9563;49.240;9.088;2022-09-12T01:37:58;14.30;;;6.97;;
18867;SDS011;9563;49.240;9.088;2022-09-12T01:40:37;10.52;;;6.65;;
18867;SDS011;9563;49.240;9.088;2022-09-12T01:43:12;10.15;;;6.05;;
18867;SDS011;9563;49.240;9.088;2022-09-12T01:45:45;6.93;;;4.95;;
18867;SDS011;9563;49.240;9.088;2022-09-12T01:48:20;10.68;;;6.25;;
18867;SDS011;9563;49.240;9.088;2022-09-12T01:50:51;9.55;;;5.60;;
18867;SDS011;9563;49.240;9.088;2022-09-12T01:53:22;11.73;;;5.70;;
18867;SDS011;9563;49.240;9.088;2022-09-12T01:55:54;14.15;;;6.25;;
18867;SDS011;9563;49.240;9.088;2022-09-12T01:58:26;12.32;;;7.10;;
18867;SDS011;9563;49.240;9.088;2022-09-12T02:00:57;13.20;;;7.07;;
18867;SDS011;9563;49.240;9.088;2022-09-12T02:03:31;12.60;;;5.97;;
18867;SDS011;9563;49.240;9.088;2022-09-12T02:06:05;9.00;;;6.13;;
18867;SDS011;9563;49.240;9.088;2022-09-12T02:08:39;11.98;;;7.47;;
18867;SDS011;9563;49.240;9.088;2022-09-12T02:11:10;9.98;;;5.90;;
18867;SDS011;9563;49.240;9.088;2022-09-12T02:13:38;11.75;;;5.65;;
18867;SDS011;9563;49.240;9.088;2022-09-12T02:16:08;11.85;;;5.72;;
18867;SDS011;9563;49.240;9.088;2022-09-12T02:18:41;10.13;;;5.93;;
18867;SDS011;9563;49.240;9.088;2022-09-12T02:21:11;9.18;;;6.10;;
18867;SDS011;9563;49.240;9.088;2022-09-12T02:23:40;7.88;;;5.20;;
18867;SDS011;9563;49.240;9.088;2022-09-12T02:26:14;24.88;;;11.82;;
18867;SDS011;9563;49.240;9.088;2022-09-12T02:28:46;32.00;;;13.13;;
18867;SDS011;9563;49.240;9.088;2022-09-12T02:31:16;37.42;;;14.75;;
18867;SDS011;9563;49.240;9.088;2022-09-12T02:33:51;28.70;;;11.45;;
18867;SDS011;9563;49.240;9.088;2022-09-12T02:36:28;25.55;;;11.55;;
18867;SDS011;9563;49.240;9.088;2022-09-12T02:39:01;24.73;;;10.85;;
18867;SDS011;9563;49.240;9.088;2022-09-12T02:41:28;20.45;;;10.57;;
18867;SDS011;9563;49.240;9.088;2022-09-12T02:43:55;18.90;;;8.60;;
18867;SDS011;9563;49.240;9.088;2022-09-12T02:46:23;17.33;;;8.65;;
18867;SDS011;9563;49.240;9.088;2022-09-12T02:48:55;12.75;;;7.43;;
18867;SDS011;9563;49.240;9.088;2022-09-12T02:51:22;11.27;;;6.97;;
18867;SDS011;9563;49.240;9.088;2022-09-12T02:53:51;11.00;;;6.65;;
18867;SDS011;9563;49.240;9.088;2022-09-12T02:56:20;11.45;;;7.07;;
18867;SDS011;9563;49.240;9.088;2022-09-12T02:58:54;11.57;;;7.55;;
18867;SDS011;9563;49.240;9.088;2022-09-12T03:01:33;10.88;;;6.93;;
18867;SDS011;9563;49.240;9.088;2022-09-12T03:04:25;9.43;;;6.57;;
18867;SDS011;9563;49.240;9.088;2022-09-12T03:07:10;8.57;;;5.70;;
18867;SDS011;9563;49.240;9.088;2022-09-12T03:09:44;9.90;;;5.90;;
18867;SDS011;9563;49.240;9.088;2022-09-12T03:12:17;8.48;;;6.07;;
18867;SDS011;9563;49.240;9.088;2022-09-12T03:14:55;8.10;;;5.78;;
18867;SDS011;9563;49.240;9.088;2022-09-12T03:17:36;6.70;;;5.10;;
18867;SDS011;9563;49.240;9.088;2022-09-12T03:20:17;8.68;;;5.43;;
18867;SDS011;9563;49.240;9.088;2022-09-12T03:22:55;7.18;;;5.15;;
18867;SDS011;9563;49.240;9.088;2022-09-12T03:25:26;10.82;;;6.38;;
18867;SDS011;9563;49.240;9.088;2022-09-12T03:27:56;11.70;;;6.07;;
18867;SDS011;9563;49.240;9.088;2022-09-12T03:30:30;10.63;;;5.45;;
18867;SDS011;9563;49.240;9.088;2022-09-12T03:33:02;11.93;;;5.72;;
18867;SDS011;9563;49.240;9.088;2022-09-12T03:35:30;12.45;;;5.53;;
18867;SDS011;9563;49.240;9.088;2022-09-12T03:37:57;8.70;;;5.20;;
18867;SDS011;9563;49.240;9.088;2022-09-12T03:40:24;10.23;;;5.53;;
18867;SDS011;9563;49.240;9.088;2022-09-12T03:42:50;10.52;;;6.03;;
18867;SDS011;9563;49.240;9.088;2022-09-12T03:45:17;16.75;;;6.13;;
18867;SDS011;9563;49.240;9.088;2022-09-12T03:47:44;12.00;;;5.75;;
18867;SDS011;9563;49.240;9.088;2022-09-12T03:50:11;10.02;;;5.75;;
18867;SDS011;9563;49.240;9.088;2022-09-12T03:52:40;10.80;;;6.18;;
18867;SDS011;9563;49.240;9.088;2022-09-12T03:55:07;9.05;;;5.60;;
18867;SDS011;9563;49.240;9.088;2022-09-12T03:57:34;13.10;;;6.80;;
18867;SDS011;9563;49.240;9.088;2022-09-12T04:00:01;10.38;;;5.75;;
18867;SDS011;9563;49.240;9.088;2022-09-12T04:02:28;11.93;;;5.13;;
18867;SDS011;9563;49.240;9.088;2022-09-12T04:04:55;9.38;;;5.93;;
18867;SDS011;9563;49.240;9.088;2022-09-12T04:07:22;11.55;;;5.97;;
18867;SDS011;9563;49.240;9.088;2022-09-12T04:09:50;8.48;;;5.07;;
18867;SDS011;9563;49.240;9.088;2022-09-12T04:12:18;12.02;;;6.03;;
18867;SDS011;9563;49.240;9.088;2022-09-12T04:14:45;8.25;;;5.60;;
18867;SDS011;9563;49.240;9.088;2022-09-12T04:17:12;7.93;;;5.65;;
18867;SDS011;9563;49.240;9.088;2022-09-12T04:19:40;7.45;;;5.22;;
18867;SDS011;9563;49.240;9.088;2022-09-12T04:22:06;8.43;;;5.57;;
18867;SDS011;9563;49.240;9.088;2022-09-12T04:24:33;8.80;;;5.88;;
18867;SDS011;9563;49.240;9.088;2022-09-12T04:27:01;10.93;;;6.28;;
18867;SDS011;9563;49.240;9.088;2022-09-12T04:29:28;6.72;;;5.30;;
18867;SDS011;9563;49.240;9.088;2022-09-12T04:31:55;6.85;;;4.63;;
18867;SDS011;9563;49.240;9.088;2022-09-12T04:34:23;11.13;;;5.10;;
18867;SDS011;9563;49.240;9.088;2022-09-12T04:36:50;10.35;;;5.07;;
18867;SDS011;9563;49.240;9.088;2022-09-12T04:39:17;8.77;;;5.20;;
18867;SDS011;9563;49.240;9.088;2022-09-12T04:41:43;7.80;;;4.45;;
18867;SDS011;9563;49.240;9.088;2022-09-12T04:44:12;7.80;;;5.00;;
18867;SDS011;9563;49.240;9.088;2022-09-12T04:46:41;9.23;;;5.50;;
18867;SDS011;9563;49.240;9.088;2022-09-12T04:49:09;8.52;;;5.15;;
18867;SDS011;9563;49.240;9.088;2022-09-12T04:51:38;8.98;;;5.88;;
18867;SDS011;9563;49.240;9.088;2022-09-12T04:54:09;10.20;;;5.60;;
18867;SDS011;9563;49.240;9.088;2022-09-12T04:56:39;8.20;;;5.45;;
18867;SDS011;9563;49.240;9.088;2022-09-12T04:59:07;11.82;;;5.65;;
18867;SDS011;9563;49.240;9.088;2022-09-12T05:01:36;7.90;;;5.63;;
18867;SDS011;9563;49.240;9.088;2022-09-12T05:04:04;9.55;;;5.25;;
18867;SDS011;9563;49.240;9.088;2022-09-12T05:06:31;7.18;;;5.25;;
18867;SDS011;9563;49.240;9.088;2022-09-12T05:09:00;9.45;;;5.35;;
18867;SDS011;9563;49.240;9.088;2022-09-12T05:11:29;8.60;;;4.85;;
18867;SDS011;9563;49.240;9.088;2022-09-12T05:13:57;6.95;;;5.18;;
18867;SDS011;9563;49.240;9.088;2022-09-12T05:16:25;6.57;;;4.57;;
18867;SDS011;9563;49.240;9.088;2022-09-12T05:18:54;8.00;;;4.88;;
18867;SDS011;9563;49.240;9.088;2022-09-12T05:21:22;5.65;;;4.40;;
18867;SDS011;9563;49.240;9.088;2022-09-12T05:23:50;6.50;;;4.82;;
18867;SDS011;9563;49.240;9.088;2022-09-12T05:26:18;7.70;;;5.07;;
18867;SDS011;9563;49.240;9.088;2022-09-12T05:28:46;6.97;;;4.20;;
18867;SDS011;9563;49.240;9.088;2022-09-12T05:31:14;6.38;;;4.50;;
18867;SDS011;9563;49.240;9.088;2022-09-12T05:33:42;7.50;;;5.30;;
18867;SDS011;9563;49.240;9.088;2022-09-12T05:36:12;6.72;;;5.15;;
18867;SDS011;9563;49.240;9.088;2022-09-12T05:38:41;8.45;;;5.55;;
18867;SDS011;9563;49.240;9.088;2022-09-12T05:41:09;8.10;;;5.10;;
18867;SDS011;9563;49.240;9.088;2022-09-12T05:43:37;8.50;;;5.13;;
18867;SDS011;9563;49.240;9.088;2022-09-12T05:46:06;8.48;;;5.72;;
18867;SDS011;9563;49.240;9.088;2022-09-12T05:48:37;8.55;;;5.10;;
18867;SDS011;9563;49.240;9.088;2022-09-12T05:51:06;6.85;;;4.40;;
18867;SDS011;9563;49.240;9.088;2022-09-12T05:53:36;6.53;;;4.30;;
18867;SDS011;9563;49.240;9.088;2022-09-12T05:56:04;6.95;;;4.70;;
18867;SDS011;9563;49.240;9.088;2022-09-12T05:58:32;6.63;;;4.85;;
18867;SDS011;9563;49.240;9.088;2022-09-12T06:01:03;9.10;;;4.70;;
18867;SDS011;9563;49.240;9.088;2022-09-12T06:03:33;6.43;;;4.40;;
18867;SDS011;9563;49.240;9.088;2022-09-12T06:06:01;7.57;;;4.78;;
18867;SDS011;9563;49.240;9.088;2022-09-12T06:08:29;7.93;;;5.00;;
18867;SDS011;9563;49.240;9.088;2022-09-12T06:11:01;8.50;;;5.30;;
18867;SDS011;9563;49.240;9.088;2022-09-12T06:13:30;7.35;;;5.57;;
18867;SDS011;9563;49.240;9.088;2022-09-12T06:16:04;9.38;;;5.53;;
18867;SDS011;9563;49.240;9.088;2022-09-12T06:18:32;9.07;;;5.55;;
18867;SDS011;9563;49.240;9.088;2022-09-12T06:21:01;7.18;;;4.97;;
18867;SDS011;9563;49.240;9.088;2022-09-12T06:23:28;7.60;;;5.15;;
18867;SDS011;9563;49.240;9.088;2022-09-12T06:25:54;10.07;;;6.05;;
18867;SDS011;9563;49.240;9.088;2022-09-12T06:28:23;7.28;;;5.40;;
18867;SDS011;9563;49.240;9.088;2022-09-12T06:30:50;10.38;;;5.90;;
18867;SDS011;9563;49.240;9.088;2022-09-12T06:33:18;8.05;;;5.20;;
18867;SDS011;9563;49.240;9.088;2022-09-12T06:35:45;10.23;;;5.50;;
18867;SDS011;9563;49.240;9.088;2022-09-12T06:38:12;14.07;;;6.40;;
18867;SDS011;9563;49.240;9.088;2022-09-12T06:40:40;7.47;;;5.13;;
18867;SDS011;9563;49.240;9.088;2022-09-12T06:43:09;10.30;;;6.00;;
18867;SDS011;9563;49.240;9.088;2022-09-12T06:45:39;7.63;;;5.40;;
18867;SDS011;9563;49.240;9.088;2022-09-12T06:48:14;9.23;;;5.32;;
18867;SDS011;9563;49.240;9.088;2022-09-12T06:50:40;8.80;;;6.32;;
18867;SDS011;9563;49.240;9.088;2022-09-12T06:53:07;13.18;;;7.10;;
18867;SDS011;9563;49.240;9.088;2022-09-12T06:55:35;11.88;;;7.03;;
18867;SDS011;9563;49.240;9.088;2022-09-12T06:58:01;10.05;;;6.20;;
18867;SDS011;9563;49.240;9.088;2022-09-12T07:00:29;11.93;;;7.20;;
18867;SDS011;9563;49.240;9.088;2022-09-12T07:02:57;11.35;;;7.38;;
18867;SDS011;9563;49.240;9.088;2022-09-12T07:05:24;10.80;;;7.43;;
18867;SDS011;9563;49.240;9.088;2022-09-12T07:07:52;13.48;;;8.90;;
18867;SDS011;9563;49.240;9.088;2022-09-12T07:10:18;16.23;;;9.57;;
18867;SDS011;9563;49.240;9.088;2022-09-12T07:12:46;12.15;;;8.48;;
18867;SDS011;9563;49.240;9.088;2022-09-12T07:15:13;15.55;;;8.98;;
18867;SDS011;9563;49.240;9.088;2022-09-12T07:17:40;12.52;;;8.32;;
18867;SDS011;9563;49.240;9.088;2022-09-12T07:20:09;14.63;;;9.07;;
18867;SDS011;9563;49.240;9.088;2022-09-12T07:22:36;14.85;;;8.70;;
18867;SDS011;9563;49.240;9.088;2022-09-12T07:25:03;13.23;;;8.25;;
18867;SDS011;9563;49.240;9.088;2022-09-12T07:27:30;15.10;;;9.40;;
18867;SDS011;9563;49.240;9.088;2022-09-12T07:29:57;13.10;;;8.85;;
18867;SDS011;9563;49.240;9.088;2022-09-12T07:32:24;15.85;;;9.57;;
18867;SDS011;9563;49.240;9.088;2022-09-12T07:34:51;15.20;;;9.02;;
18867;SDS011;9563;49.240;9.088;2022-09-12T07:37:20;12.80;;;8.63;;
18867;SDS011;9563;49.240;9.088;2022-09-12T07:39:46;13.05;;;8.82;;
18867;SDS011;9563;49.240;9.088;2022-09-12T07:42:13;14.75;;;8.55;;
18867;SDS011;9563;49.240;9.088;2022-09-12T07:44:40;11.95;;;8.18;;
18867;SDS011;9563;49.240;9.088;2022-09-12T07:47:08;12.57;;;9.15;;
18867;SDS011;9563;49.240;9.088;2022-09-12T07:49:35;13.52;;;8.18;;
18867;SDS011;9563;49.240;9.088;2022-09-12T07:52:02;12.45;;;8.32;;
18867;SDS011;9563;49.240;9.088;2022-09-12T07:54:31;13.73;;;8.20;;
18867;SDS011;9563;49.240;9.088;2022-09-12T07:56:58;16.80;;;9.05;;
18867;SDS011;9563;49.240;9.088;2022-09-12T07:59:25;12.38;;;8.50;;
18867;SDS011;9563;49.240;9.088;2022-09-12T08:01:52;17.30;;;8.68;;
18867;SDS011;9563;49.240;9.088;2022-09-12T08:04:19;14.02;;;8.18;;
18867;SDS011;9563;49.240;9.088;2022-09-12T08:06:46;14.30;;;8.75;;
18867;SDS011;9563;49.240;9.088;2022-09-12T08:09:13;11.68;;;7.90;;
18867;SDS011;9563;49.240;9.088;2022-09-12T08:11:43;12.82;;;7.80;;
18867;SDS011;9563;49.240;9.088;2022-09-12T08:14:09;10.63;;;8.10;;
18867;SDS011;9563;49.240;9.088;2022-09-12T08:16:36;13.10;;;9.05;;
18867;SDS011;9563;49.240;9.088;2022-09-12T08:19:03;12.50;;;8.00;;
18867;SDS011;9563;49.240;9.088;2022-09-12T08:21:31;13.93;;;8.98;;
18867;SDS011;9563;49.240;9.088;2022-09-12T08:23:58;11.82;;;8.07;;
18867;SDS011;9563;49.240;9.088;2022-09-12T08:26:27;12.20;;;8.20;;
18867;SDS011;9563;49.240;9.088;2022-09-12T08:28:56;11.93;;;8.52;;
18867;SDS011;9563;49.240;9.088;2022-09-12T08:31:23;13.88;;;8.98;;
18867;SDS011;9563;49.240;9.088;2022-09-12T08:33:53;12.80;;;8.60;;
18867;SDS011;9563;49.240;9.088;2022-09-12T08:36:21;10.50;;;7.75;;
18867;SDS011;9563;49.240;9.088;2022-09-12T08:38:50;14.93;;;7.65;;
18867;SDS011;9563;49.240;9.088;2022-09-12T08:41:24;11.18;;;7.93;;
18867;SDS011;9563;49.240;9.088;2022-09-12T08:44:07;9.55;;;7.47;;
18867;SDS011;9563;49.240;9.088;2022-09-12T08:46:59;8.93;;;7.18;;
18867;SDS011;9563;49.240;9.088;2022-09-12T08:49:38;9.63;;;7.53;;
18867;SDS011;9563;49.240;9.088;2022-09-12T08:52:12;14.90;;;7.13;;
18867;SDS011;9563;49.240;9.088;2022-09-12T08:54:43;11.30;;;7.18;;
18867;SDS011;9563;49.240;9.088;2022-09-12T08:57:10;7.70;;;5.95;;
18867;SDS011;9563;49.240;9.088;2022-09-12T08:59:42;10.57;;;7.65;;
18867;SDS011;9563;49.240;9.088;2022-09-12T09:02:16;9.60;;;7.22;;
18867;SDS011;9563;49.240;9.088;2022-09-12T09:04:55;11.45;;;6.90;;
18867;SDS011;9563;49.240;9.088;2022-09-12T09:07:34;10.52;;;7.95;;
18867;SDS011;9563;49.240;9.088;2022-09-12T09:10:18;8.13;;;6.40;;
18867;SDS011;9563;49.240;9.088;2022-09-12T09:12:53;9.80;;;7.50;;
18867;SDS011;9563;49.240;9.088;2022-09-12T09:15:34;8.15;;;5.68;;
18867;SDS011;9563;49.240;9.088;2022-09-12T09:18:08;9.73;;;6.80;;
18867;SDS011;9563;49.240;9.088;2022-09-12T09:20:43;9.23;;;6.80;;
18867;SDS011;9563;49.240;9.088;2022-09-12T09:23:15;8.35;;;6.25;;
18867;SDS011;9563;49.240;9.088;2022-09-12T09:25:49;9.40;;;5.68;;
18867;SDS011;9563;49.240;9.088;2022-09-12T09:28:22;6.03;;;5.32;;
18867;SDS011;9563;49.240;9.088;2022-09-12T09:30:53;6.88;;;5.05;;
18867;SDS011;9563;49.240;9.088;2022-09-12T09:33:21;7.00;;;4.72;;
18867;SDS011;9563;49.240;9.088;2022-09-12T09:35:55;7.68;;;5.20;;
18867;SDS011;9563;49.240;9.088;2022-09-12T09:38:28;8.00;;;5.22;;
18867;SDS011;9563;49.240;9.088;2022-09-12T09:41:15;9.30;;;6.18;;
18867;SDS011;9563;49.240;9.088;2022-09-12T09:43:59;9.93;;;4.93;;
18867;SDS011;9563;49.240;9.088;2022-09-12T09:46:28;7.47;;;5.03;;
18867;SDS011;9563;49.240;9.088;2022-09-12T09:48:55;5.55;;;4.00;;
18867;SDS011;9563;49.240;9.088;2022-09-12T09:51:25;8.02;;;4.28;;
18867;SDS011;9563;49.240;9.088;2022-09-12T09:53:58;7.30;;;4.70;;
18867;SDS011;9563;49.240;9.088;2022-09-12T09:56:29;10.15;;;6.65;;
18867;SDS011;9563;49.240;9.088;2022-09-12T09:59:07;9.43;;;6.15;;
18867;SDS011;9563;49.240;9.088;2022-09-12T10:01:37;8.85;;;5.93;;
18867;SDS011;9563;49.240;9.088;2022-09-12T10:04:15;8.95;;;5.82;;
18867;SDS011;9563;49.240;9.088;2022-09-12T10:06:45;5.93;;;5.00;;
18867;SDS011;9563;49.240;9.088;2022-09-12T10:09:19;5.78;;;4.72;;
18867;SDS011;9563;49.240;9.088;2022-09-12T10:11:48;6.45;;;4.07;;
18867;SDS011;9563;49.240;9.088;2022-09-12T10:14:27;6.05;;;4.28;;
18867;SDS011;9563;49.240;9.088;2022-09-12T10:17:02;6.60;;;5.07;;
18867;SDS011;9563;49.240;9.088;2022-09-12T10:19:46;6.28;;;4.38;;
18867;SDS011;9563;49.240;9.088;2022-09-12T10:22:14;5.72;;;4.20;;
18867;SDS011;9563;49.240;9.088;2022-09-12T10:24:45;5.22;;;4.00;;
18867;SDS011;9563;49.240;9.088;2022-09-12T10:27:18;6.00;;;3.47;;
18867;SDS011;9563;49.240;9.088;2022-09-12T10:29:47;6.60;;;4.60;;
18867;SDS011;9563;49.240;9.088;2022-09-12T10:32:33;7.97;;;4.65;;
18867;SDS011;9563;49.240;9.088;2022-09-12T10:35:05;6.10;;;5.00;;
18867;SDS011;9563;49.240;9.088;2022-09-12T10:37:48;7.85;;;5.40;;
18867;SDS011;9563;49.240;9.088;2022-09-12T10:40:20;3.97;;;3.55;;
18867;SDS011;9563;49.240;9.088;2022-09-12T10:42:50;6.47;;;5.47;;
18867;SDS011;9563;49.240;9.088;2022-09-12T10:45:23;5.65;;;4.35;;
18867;SDS011;9563;49.240;9.088;2022-09-12T10:47:54;6.68;;;4.22;;
18867;SDS011;9563;49.240;9.088;2022-09-12T10:50:25;7.22;;;4.50;;
18867;SDS011;9563;49.240;9.088;2022-09-12T10:52:55;5.28;;;4.07;;
18867;SDS011;9563;49.240;9.088;2022-09-12T10:55:40;6.72;;;4.47;;
18867;SDS011;9563;49.240;9.088;2022-09-12T10:58:22;7.55;;;5.38;;
18867;SDS011;9563;49.240;9.088;2022-09-12T11:01:10;5.85;;;5.07;;
18867;SDS011;9563;49.240;9.088;2022-09-12T11:03:53;9.35;;;4.82;;
18867;SDS011;9563;49.240;9.088;2022-09-12T11:06:32;4.43;;;3.35;;
18867;SDS011;9563;49.240;9.088;2022-09-12T11:09:05;6.68;;;3.80;;
18867;SDS011;9563;49.240;9.088;2022-09-12T11:11:47;5.03;;;4.10;;
18867;SDS011;9563;49.240;9.088;2022-09-12T11:14:27;4.90;;;3.70;;
18867;SDS011;9563;49.240;9.088;2022-09-12T11:17:08;4.53;;;3.40;;
18867;SDS011;9563;49.240;9.088;2022-09-12T11:19:51;4.97;;;3.17;;
18867;SDS011;9563;49.240;9.088;2022-09-12T11:25:31;5.80;;;3.58;;
18867;SDS011;9563;49.240;9.088;2022-09-12T11:28:17;3.70;;;3.30;;
18867;SDS011;9563;49.240;9.088;2022-09-12T11:31:00;5.20;;;3.00;;
18867;SDS011;9563;49.240;9.088;2022-09-12T11:33:43;5.03;;;3.38;;
18867;SDS011;9563;49.240;9.088;2022-09-12T11:36:29;4.70;;;3.35;;
18867;SDS011;9563;49.240;9.088;2022-09-12T11:39:05;4.97;;;3.10;;
18867;SDS011;9563;49.240;9.088;2022-09-12T11:41:39;5.25;;;2.90;;
18867;SDS011;9563;49.240;9.088;2022-09-12T11:44:10;5.15;;;3.65;;
18867;SDS011;9563;49.240;9.088;2022-09-12T11:46:43;3.45;;;2.90;;
18867;SDS011;9563;49.240;9.088;2022-09-12T11:49:13;7.40;;;3.70;;
18867;SDS011;9563;49.240;9.088;2022-09-12T11:51:47;3.45;;;2.85;;
18867;SDS011;9563;49.240;9.088;2022-09-12T11:54:20;4.38;;;3.75;;
18867;SDS011;9563;49.240;9.088;2022-09-12T11:56:51;7.03;;;4.13;;
18867;SDS011;9563;49.240;9.088;2022-09-12T11:59:28;3.85;;;3.45;;
18867;SDS011;9563;49.240;9.088;2022-09-12T12:01:58;4.53;;;3.20;;
18867;SDS011;9563;49.240;9.088;2022-09-12T12:04:30;5.53;;;3.50;;
18867;SDS011;9563;49.240;9.088;2022-09-12T12:07:04;5.75;;;3.30;;
18867;SDS011;9563;49.240;9.088;2022-09-12T12:09:45;5.70;;;3.50;;
18867;SDS011;9563;49.240;9.088;2022-09-12T12:12:15;5.30;;;3.95;;
18867;SDS011;9563;49.240;9.088;2022-09-12T12:14:48;5.75;;;3.20;;
18867;SDS011;9563;49.240;9.088;2022-09-12T12:17:18;3.45;;;3.15;;
18867;SDS011;9563;49.240;9.088;2022-09-12T12:19:47;3.97;;;2.70;;
18867;SDS011;9563;49.240;9.088;2022-09-12T12:22:25;3.00;;;2.63;;
18867;SDS011;9563;49.240;9.088;2022-09-12T12:24:57;3.20;;;2.80;;
18867;SDS011;9563;49.240;9.088;2022-09-12T12:27:47;4.03;;;2.50;;
18867;SDS011;9563;49.240;9.088;2022-09-12T12:36:36;5.45;;;2.63;;
18867;SDS011;9563;49.240;9.088;2022-09-12T12:48:48;3.28;;;2.70;;
18867;SDS011;9563;49.240;9.088;2022-09-12T12:51:42;3.10;;;2.00;;
18867;SDS011;9563;49.240;9.088;2022-09-12T12:54:33;4.32;;;3.03;;
18867;SDS011;9563;49.240;9.088;2022-09-12T12:57:28;2.92;;;2.63;;
18867;SDS011;9563;49.240;9.088;2022-09-12T13:00:24;3.58;;;2.08;;
18867;SDS011;9563;49.240;9.088;2022-09-12T13:02:56;5.70;;;2.30;;
18867;SDS011;9563;49.240;9.088;2022-09-12T13:05:27;2.28;;;2.08;;
18867;SDS011;9563;49.240;9.088;2022-09-12T13:07:57;3.95;;;1.83;;
18867;SDS011;9563;49.240;9.088;2022-09-12T13:10:28;3.22;;;2.00;;
18867;SDS011;9563;49.240;9.088;2022-09-12T13:12:56;3.17;;;2.20;;
18867;SDS011;9563;49.240;9.088;2022-09-12T13:15:40;2.55;;;2.35;;
18867;SDS011;9563;49.240;9.088;2022-09-12T13:18:15;3.25;;;1.80;;
18867;SDS011;9563;49.240;9.088;2022-09-12T13:20:48;3.17;;;1.95;;
18867;SDS011;9563;49.240;9.088;2022-09-12T13:23:23;4.63;;;2.10;;
18867;SDS011;9563;49.240;9.088;2022-09-12T13:25:52;3.47;;;2.05;;
18867;SDS011;9563;49.240;9.088;2022-09-12T13:28:20;3.42;;;2.15;;
18867;SDS011;9563;49.240;9.088;2022-09-12T13:30:53;2.70;;;2.05;;
18867;SDS011;9563;49.240;9.088;2022-09-12T13:33:27;3.92;;;2.10;;
18867;SDS011;9563;49.240;9.088;2022-09-12T13:36:04;2.05;;;1.80;;
18867;SDS011;9563;49.240;9.088;2022-09-12T13:38:49;3.83;;;2.00;;
18867;SDS011;9563;49.240;9.088;2022-09-12T13:41:28;2.75;;;1.75;;
18867;SDS011;9563;49.240;9.088;2022-09-12T13:44:06;3.50;;;1.77;;
18867;SDS011;9563;49.240;9.088;2022-09-12T13:46:37;1.75;;;1.65;;
18867;SDS011;9563;49.240;9.088;2022-09-12T13:49:09;2.20;;;1.85;;
18867;SDS011;9563;49.240;9.088;2022-09-12T13:51:41;2.03;;;1.65;;
18867;SDS011;9563;49.240;9.088;2022-09-12T13:54:11;3.80;;;1.80;;
18867;SDS011;9563;49.240;9.088;2022-09-12T13:56:46;3.00;;;1.83;;
18867;SDS011;9563;49.240;9.088;2022-09-12T13:59:14;4.68;;;1.60;;
18867;SDS011;9563;49.240;9.088;2022-09-12T14:01:44;3.40;;;1.80;;
18867;SDS011;9563;49.240;9.088;2022-09-12T14:04:17;1.55;;;1.45;;
18867;SDS011;9563;49.240;9.088;2022-09-12T14:07:08;1.67;;;1.38;;
18867;SDS011;9563;49.240;9.088;2022-09-12T14:09:39;2.85;;;1.55;;
18867;SDS011;9563;49.240;9.088;2022-09-12T14:12:14;1.23;;;1.13;;
18867;SDS011;9563;49.240;9.088;2022-09-12T14:14:47;4.07;;;1.52;;
18867;SDS011;9563;49.240;9.088;2022-09-12T14:17:17;2.42;;;1.33;;
18867;SDS011;9563;49.240;9.088;2022-09-12T14:19:50;1.55;;;1.45;;
18867;SDS011;9563;49.240;9.088;2022-09-12T14:22:17;2.15;;;1.45;;
18867;SDS011;9563;49.240;9.088;2022-09-12T14:24:44;4.80;;;1.52;;
18867;SDS011;9563;49.240;9.088;2022-09-12T14:27:15;3.50;;;1.67;;
18867;SDS011;9563;49.240;9.088;2022-09-12T14:29:44;2.05;;;1.60;;
18867;SDS011;9563;49.240;9.088;2022-09-12T14:32:17;3.55;;;1.58;;
18867;SDS011;9563;49.240;9.088;2022-09-12T14:37:31;3.67;;;1.50;;
18867;SDS011;9563;49.240;9.088;2022-09-12T14:39:58;1.73;;;1.50;;
18867;SDS011;9563;49.240;9.088;2022-09-12T14:42:28;2.60;;;1.60;;
18867;SDS011;9563;49.240;9.088;2022-09-12T14:44:57;3.55;;;1.80;;
18867;SDS011;9563;49.240;9.088;2022-09-12T14:47:29;4.82;;;1.73;;
18867;SDS011;9563;49.240;9.088;2022-09-12T14:50:11;2.42;;;1.73;;
18867;SDS011;9563;49.240;9.088;2022-09-12T14:52:41;2.70;;;1.60;;
18867;SDS011;9563;49.240;9.088;2022-09-12T14:55:18;2.42;;;1.52;;
18867;SDS011;9563;49.240;9.088;2022-09-12T14:57:57;2.33;;;1.60;;
18867;SDS011;9563;49.240;9.088;2022-09-12T15:00:36;2.38;;;1.55;;
18867;SDS011;9563;49.240;9.088;2022-09-12T15:03:21;1.60;;;1.50;;
18867;SDS011;9563;49.240;9.088;2022-09-12T15:05:52;3.47;;;1.75;;
18867;SDS011;9563;49.240;9.088;2022-09-12T15:08:19;5.88;;;1.55;;
18867;SDS011;9563;49.240;9.088;2022-09-12T15:10:46;2.45;;;1.50;;
18867;SDS011;9563;49.240;9.088;2022-09-12T15:13:17;2.53;;;1.27;;
18867;SDS011;9563;49.240;9.088;2022-09-12T15:15:47;1.58;;;1.00;;
18867;SDS011;9563;49.240;9.088;2022-09-12T15:18:15;2.15;;;0.80;;
18867;SDS011;9563;49.240;9.088;2022-09-12T15:20:43;1.00;;;0.90;;
18867;SDS011;9563;49.240;9.088;2022-09-12T15:23:16;0.77;;;0.77;;
18867;SDS011;9563;49.240;9.088;2022-09-12T15:25:45;1.92;;;1.08;;
18867;SDS011;9563;49.240;9.088;2022-09-12T15:28:17;1.70;;;1.00;;
18867;SDS011;9563;49.240;9.088;2022-09-12T15:30:47;1.08;;;0.90;;
18867;SDS011;9563;49.240;9.088;2022-09-12T15:33:15;2.15;;;0.90;;
18867;SDS011;9563;49.240;9.088;2022-09-12T15:35:43;1.02;;;0.88;;
18867;SDS011;9563;49.240;9.088;2022-09-12T15:38:10;0.80;;;0.80;;
18867;SDS011;9563;49.240;9.088;2022-09-12T15:40:38;1.30;;;1.08;;
18867;SDS011;9563;49.240;9.088;2022-09-12T15:43:05;3.38;;;1.90;;
18867;SDS011;9563;49.240;9.088;2022-09-12T15:45:33;2.10;;;0.85;;